| time (UTC) | temp F | wind direction | speed knots | gust knots | rain 1hr in | rain 24hr in | rain mn in | humidity % | barometer mb |
| 20260510090047 | 63 | 178 | 0.9 | 5.2 | 0.00 | 0.00 | 0.00 | 62 | 1063.4 |
| 20260510084544 | 63 | 214 | 0.9 | 4.3 | 0.00 | 0.00 | 0.00 | 64 | 1063.4 |
| 20260510083046 | 62 | 309 | 1.7 | 7.0 | 0.00 | 0.00 | 0.00 | 65 | 1063.5 |
| 20260510081544 | 61 | 96 | 1.7 | 7.0 | 0.00 | 0.00 | 0.00 | 68 | 1063.7 |
| 20260510080037 | 61 | 192 | 0.9 | 5.2 | 0.00 | 0.00 | 0.00 | 69 | 1063.7 |
| 20260510074532 | 60 | 304 | 0.9 | 7.0 | 0.00 | 0.00 | 0.00 | 71 | 1063.8 |
| 20260510073029 | 59 | 301 | 0.9 | 5.2 | 0.00 | 0.00 | 0.00 | 72 | 1064.0 |
| 20260510071536 | 57 | 290 | 1.7 | 7.0 | 0.00 | 0.00 | 0.00 | 73 | 1064.1 |
| 20260510070024 | 58 | 296 | 0.0 | 4.3 | 0.00 | 0.00 | 0.00 | 76 | 1064.2 |
| 20260510064520 | 56 | 245 | 0.9 | 6.1 | 0.00 | 0.00 | 0.00 | 79 | 1064.2 |
| 20260510063023 | 54 | 317 | 0.9 | 6.1 | 0.00 | 0.00 | 0.00 | 81 | 1064.3 |
| 20260510061533 | 53 | 304 | 1.7 | 6.1 | 0.00 | 0.00 | 0.00 | 83 | 1064.3 |
| 20260510060015 | 53 | 216 | 0.0 | 6.1 | 0.00 | 0.00 | 0.00 | 85 | 1064.3 |
| 20260510054514 | 52 | 218 | 0.0 | 3.5 | 0.00 | 0.00 | 0.00 | 86 | 1064.2 |
| 20260510053013 | 52 | 278 | 0.0 | 2.6 | 0.00 | 0.00 | 0.00 | 87 | 1064.2 |
| 20260510051513 | 51 | 222 | 0.9 | 4.3 | 0.00 | 0.00 | 0.00 | 87 | 1064.3 |
| 20260510050011 | 51 | 207 | 0.0 | 6.1 | 0.00 | 0.00 | 0.00 | 87 | 1064.3 |
| 20260510044511 | 51 | 281 | 0.0 | 4.3 | 0.00 | 0.00 | 0.00 | 86 | 1064.2 |
| 20260510043018 | 51 | 265 | 0.0 | 4.3 | 0.00 | 0.00 | 0.00 | 86 | 1064.2 |
| 20260510041609 | 51 | 328 | 0.0 | 3.5 | 0.00 | 0.00 | 0.00 | 86 | 1064.1 |
| 20260510040009 | 51 | 285 | 0.0 | 3.5 | 0.00 | 0.00 | 0.00 | 86 | 1064.2 |
| 20260510034507 | 51 | 278 | 0.9 | 4.3 | 0.00 | 0.00 | 0.00 | 85 | 1064.1 |
| 20260510033007 | 51 | 259 | 0.0 | 4.3 | 0.00 | 0.00 | 0.00 | 85 | 1064.2 |
| 20260510031508 | 51 | 84 | 0.9 | 3.5 | 0.00 | 0.00 | 0.00 | 85 | 1064.4 |
| 20260510030005 | 51 | 238 | 0.0 | 1.7 | 0.00 | 0.00 | 0.00 | 84 | 1064.5 |
| 20260510023001 | 50 | 300 | 0.9 | 3.5 | 0.00 | 0.00 | 0.00 | 85 | 1064.4 |
| 20260510021603 | 50 | 272 | 0.0 | 2.6 | 0.00 | 0.00 | 0.00 | 85 | 1064.4 |
| 20260510020058 | 49 | 257 | 0.0 | 0.9 | 0.00 | 0.00 | 0.00 | 85 | 1064.5 |
| 20260510014556 | 49 | 267 | 0.0 | 0.0 | 0.00 | 0.00 | 0.00 | 84 | 1064.6 |
| 20260510013055 | 49 | 268 | 0.0 | 0.0 | 0.00 | 0.00 | 0.00 | 82 | 1064.8 |
| 20260510011556 | 51 | 268 | 0.0 | 0.9 | 0.00 | 0.00 | 0.00 | 81 | 1064.8 |
| 20260510010048 | 51 | 273 | 0.0 | 0.0 | 0.00 | 0.00 | 0.00 | 79 | 1064.8 |
| 20260510004550 | 51 | 244 | 0.0 | 1.7 | 0.00 | 0.00 | 0.00 | 79 | 1065.0 |
| 20260510003103 | 52 | 231 | 0.0 | 0.0 | 0.00 | 0.00 | 0.00 | 78 | 1064.9 |
| 20260510001545 | 51 | 259 | 0.0 | 0.9 | 0.00 | 0.00 | 0.00 | 79 | 1064.9 |
| 20260510000046 | 51 | 249 | 0.0 | 0.0 | 0.00 | 0.00 | 0.00 | 79 | 1065.1 |
| 20260509234558 | 51 | 268 | 0.0 | 0.9 | 0.00 | 0.00 | 0.00 | 80 | 1065.3 |
| 20260509233043 | 51 | 280 | 0.0 | 0.9 | 0.00 | 0.00 | 0.00 | 79 | 1065.3 |
| 20260509231551 | 51 | 280 | 0.0 | 0.0 | 0.00 | 0.00 | 0.00 | 78 | 1065.3 |
| 20260509230038 | 52 | 280 | 0.0 | 0.9 | 0.00 | 0.00 | 0.00 | 78 | 1065.3 |
| 20260509224536 | 52 | 298 | 0.0 | 0.9 | 0.00 | 0.00 | 0.00 | 77 | 1065.4 |
| 20260509223035 | 53 | 299 | 0.0 | 0.0 | 0.00 | 0.00 | 0.00 | 76 | 1065.4 |
| 20260509221533 | 53 | 299 | 0.0 | 1.7 | 0.00 | 0.00 | 0.00 | 76 | 1065.4 |
| 20260509220029 | 54 | 266 | 0.0 | 0.0 | 0.00 | 0.00 | 0.00 | 74 | 1065.5 |
| 20260509214528 | 55 | 266 | 0.0 | 0.0 | 0.00 | 0.00 | 0.00 | 71 | 1065.6 |
| 20260509213027 | 56 | 272 | 0.0 | 0.0 | 0.00 | 0.00 | 0.00 | 69 | 1065.4 |
| 20260509211528 | 57 | 255 | 0.0 | 0.9 | 0.00 | 0.00 | 0.00 | 68 | 1065.3 |
| 20260509210026 | 58 | 262 | 0.0 | 1.7 | 0.00 | 0.00 | 0.00 | 66 | 1065.2 |
| 20260509204528 | 59 | 302 | 0.0 | 0.9 | 0.00 | 0.00 | 0.00 | 65 | 1065.2 |
| 20260509203033 | 59 | 268 | 0.0 | 2.6 | 0.00 | 0.00 | 0.00 | 65 | 1065.3 |
| 20260509201525 | 60 | 251 | 0.0 | 2.6 | 0.00 | 0.00 | 0.00 | 64 | 1065.3 |
| 20260509200025 | 60 | 295 | 0.0 | 1.7 | 0.00 | 0.00 | 0.00 | 64 | 1065.2 |
| 20260509194531 | 60 | 271 | 0.0 | 1.7 | 0.00 | 0.00 | 0.00 | 64 | 1064.9 |
| 20260509193023 | 60 | 140 | 0.0 | 0.0 | 0.00 | 0.00 | 0.00 | 64 | 1064.9 |
| 20260509191523 | 60 | 210 | 0.0 | 0.0 | 0.00 | 0.00 | 0.00 | 65 | 1064.9 |
| 20260509190022 | 62 | 210 | 0.0 | 0.0 | 0.00 | 0.00 | 0.00 | 62 | 1064.9 |
| 20260509184521 | 63 | 209 | 0.0 | 0.0 | 0.00 | 0.00 | 0.00 | 59 | 1064.6 |
| 20260509183026 | 65 | 185 | 0.0 | 0.0 | 0.00 | 0.00 | 0.00 | 57 | 1064.6 |
| 20260509181536 | 66 | 185 | 0.0 | 0.0 | 0.00 | 0.00 | 0.00 | 53 | 1064.6 |
| 20260509180020 | 67 | 302 | 0.0 | 0.9 | 0.00 | 0.00 | 0.00 | 51 | 1064.6 |
| 20260509174520 | 67 | 162 | 0.0 | 0.9 | 0.00 | 0.00 | 0.00 | 51 | 1064.4 |
| 20260509173024 | 68 | 172 | 0.0 | 1.7 | 0.00 | 0.00 | 0.00 | 50 | 1064.3 |
| 20260509171520 | 68 | 165 | 0.0 | 1.7 | 0.00 | 0.00 | 0.00 | 49 | 1064.3 |
| 20260509170016 | 69 | 268 | 0.0 | 1.7 | 0.00 | 0.00 | 0.00 | 49 | 1064.4 |
| 20260509164514 | 69 | 226 | 0.0 | 0.9 | 0.00 | 0.00 | 0.00 | 49 | 1064.5 |
| 20260509163018 | 70 | 98 | 0.0 | 1.7 | 0.00 | 0.00 | 0.00 | 47 | 1064.6 |
| 20260509161514 | 72 | 321 | 2.6 | 7.0 | 0.00 | 0.00 | 0.00 | 44 | 1064.5 |
| 20260509160012 | 72 | 296 | 0.0 | 4.3 | 0.00 | 0.00 | 0.00 | 44 | 1064.5 |
| 20260509154509 | 71 | 240 | 0.0 | 1.7 | 0.00 | 0.00 | 0.00 | 44 | 1064.6 |
| 20260509153007 | 70 | 89 | 0.0 | 3.5 | 0.00 | 0.00 | 0.00 | 46 | 1064.7 |
| 20260509151507 | 70 | 265 | 0.0 | 1.7 | 0.00 | 0.00 | 0.00 | 46 | 1065.0 |
| 20260509150011 | 71 | 274 | 0.0 | 4.3 | 0.00 | 0.00 | 0.00 | 46 | 1065.0 |
| 20260509144500 | 71 | 199 | 0.0 | 1.7 | 0.00 | 0.00 | 0.00 | 45 | 1065.1 |
| 20260509143059 | 71 | 103 | 0.0 | 2.6 | 0.00 | 0.00 | 0.00 | 46 | 1065.3 |
| 20260509141608 | 70 | 89 | 0.9 | 4.3 | 0.00 | 0.00 | 0.00 | 48 | 1065.4 |
| 20260509140105 | 72 | 304 | 0.9 | 5.2 | 0.00 | 0.00 | 0.00 | 45 | 1065.4 |
| 20260509134559 | 72 | 295 | 0.9 | 3.5 | 0.00 | 0.00 | 0.00 | 45 | 1065.5 |
| 20260509133052 | 72 | 123 | 0.0 | 3.5 | 0.00 | 0.00 | 0.00 | 44 | 1065.7 |
| 20260509131549 | 72 | 32 | 0.0 | 2.6 | 0.00 | 0.00 | 0.00 | 45 | 1065.9 |
| 20260509130045 | 72 | 68 | 0.9 | 4.3 | 0.00 | 0.00 | 0.00 | 46 | 1066.1 |
| 20260509124542 | 71 | 108 | 0.0 | 5.2 | 0.00 | 0.00 | 0.00 | 48 | 1066.3 |
| 20260509123040 | 71 | 67 | 0.9 | 4.3 | 0.00 | 0.00 | 0.00 | 48 | 1066.4 |
| 20260509121539 | 70 | 91 | 0.9 | 5.2 | 0.00 | 0.00 | 0.00 | 50 | 1066.6 |
| 20260509120035 | 69 | 210 | 0.0 | 2.6 | 0.00 | 0.00 | 0.00 | 52 | 1066.8 |
| 20260509114534 | 68 | 132 | 0.0 | 5.2 | 0.00 | 0.00 | 0.00 | 50 | 1066.9 |
| 20260509113034 | 69 | 242 | 0.0 | 2.6 | 0.00 | 0.00 | 0.00 | 52 | 1066.9 |
| 20260509111531 | 68 | 122 | 0.9 | 3.5 | 0.00 | 0.00 | 0.00 | 51 | 1067.2 |
| 20260509110034 | 70 | 91 | 0.0 | 6.1 | 0.00 | 0.00 | 0.00 | 48 | 1067.3 |
| 20260509104536 | 69 | 347 | 0.9 | 5.2 | 0.00 | 0.00 | 0.00 | 50 | 1067.4 |
| 20260509103026 | 70 | 127 | 1.7 | 3.5 | 0.00 | 0.00 | 0.00 | 48 | 1067.6 |
| 20260509101527 | 69 | 238 | 0.0 | 3.5 | 0.00 | 0.00 | 0.00 | 48 | 1067.6 |
| 20260509100022 | 69 | 107 | 1.7 | 5.2 | 0.00 | 0.00 | 0.00 | 49 | 1067.7 |
| 20260509094520 | 69 | 157 | 1.7 | 4.3 | 0.00 | 0.00 | 0.00 | 51 | 1067.8 |
| 20260509093018 | 68 | 301 | 0.0 | 3.5 | 0.00 | 0.00 | 0.00 | 54 | 1067.8 |
| 20260509091516 | 67 | 90 | 0.9 | 5.2 | 0.00 | 0.00 | 0.00 | 55 | 1067.9 |